sensor_id;sensor_type;location;lat;lon;timestamp;pressure;altitude;pressure_sealevel;temperature;humidity
56992;BME280;42885;49.754;18.636;2023-05-13T00:00:34;98677.06;;;15.67;100.00
56992;BME280;42885;49.754;18.636;2023-05-13T00:03:07;98677.58;;;15.42;100.00
56992;BME280;42885;49.754;18.636;2023-05-13T00:05:38;98678.17;;;15.70;100.00
56992;BME280;42885;49.754;18.636;2023-05-13T00:08:09;98676.86;;;15.76;100.00
56992;BME280;42885;49.754;18.636;2023-05-13T00:10:40;98672.92;;;15.46;100.00
56992;BME280;42885;49.754;18.636;2023-05-13T00:13:11;98671.16;;;15.52;100.00
56992;BME280;42885;49.754;18.636;2023-05-13T00:15:42;98677.82;;;15.39;100.00
56992;BME280;42885;49.754;18.636;2023-05-13T00:18:13;98684.14;;;15.31;100.00
56992;BME280;42885;49.754;18.636;2023-05-13T00:20:44;98669.59;;;15.55;100.00
56992;BME280;42885;49.754;18.636;2023-05-13T00:23:15;98671.24;;;15.45;100.00
56992;BME280;42885;49.754;18.636;2023-05-13T00:25:46;98675.69;;;15.20;100.00
56992;BME280;42885;49.754;18.636;2023-05-13T00:28:18;98679.31;;;15.00;100.00
56992;BME280;42885;49.754;18.636;2023-05-13T00:30:49;98675.36;;;15.00;100.00
56992;BME280;42885;49.754;18.636;2023-05-13T00:33:20;98677.70;;;14.92;100.00
56992;BME280;42885;49.754;18.636;2023-05-13T00:35:51;98678.34;;;15.25;100.00
56992;BME280;42885;49.754;18.636;2023-05-13T00:38:22;98671.02;;;15.18;100.00
56992;BME280;42885;49.754;18.636;2023-05-13T00:40:53;98670.42;;;15.20;100.00
56992;BME280;42885;49.754;18.636;2023-05-13T00:43:24;98675.14;;;14.84;100.00
56992;BME280;42885;49.754;18.636;2023-05-13T00:45:55;98667.22;;;15.03;100.00
56992;BME280;42885;49.754;18.636;2023-05-13T00:48:27;98674.91;;;14.88;100.00
56992;BME280;42885;49.754;18.636;2023-05-13T00:51:01;98672.77;;;14.87;100.00
56992;BME280;42885;49.754;18.636;2023-05-13T00:53:33;98668.92;;;14.85;100.00
56992;BME280;42885;49.754;18.636;2023-05-13T00:56:04;98682.15;;;14.97;100.00
56992;BME280;42885;49.754;18.636;2023-05-13T00:58:35;98678.23;;;14.84;100.00
56992;BME280;42885;49.754;18.636;2023-05-13T01:01:12;98681.44;;;14.76;100.00
56992;BME280;42885;49.754;18.636;2023-05-13T01:04:02;98679.59;;;14.90;100.00
56992;BME280;42885;49.754;18.636;2023-05-13T01:12:11;98678.94;;;14.67;100.00
56992;BME280;42885;49.754;18.636;2023-05-13T01:14:47;98681.01;;;14.56;100.00
56992;BME280;42885;49.754;18.636;2023-05-13T01:17:29;98688.93;;;14.43;100.00
56992;BME280;42885;49.754;18.636;2023-05-13T01:19:57;98690.73;;;14.43;100.00
56992;BME280;42885;49.754;18.636;2023-05-13T01:22:30;98692.74;;;14.39;100.00
56992;BME280;42885;49.754;18.636;2023-05-13T01:25:01;98697.04;;;14.53;100.00
56992;BME280;42885;49.754;18.636;2023-05-13T01:27:32;98695.36;;;14.52;100.00
56992;BME280;42885;49.754;18.636;2023-05-13T01:30:04;98690.13;;;14.58;100.00
56992;BME280;42885;49.754;18.636;2023-05-13T01:32:36;98687.76;;;14.61;100.00
56992;BME280;42885;49.754;18.636;2023-05-13T01:35:08;98692.78;;;14.45;100.00
56992;BME280;42885;49.754;18.636;2023-05-13T01:37:43;98694.46;;;14.46;100.00
56992;BME280;42885;49.754;18.636;2023-05-13T01:40:14;98692.11;;;14.36;100.00
56992;BME280;42885;49.754;18.636;2023-05-13T01:42:46;98693.70;;;14.25;100.00
56992;BME280;42885;49.754;18.636;2023-05-13T01:45:17;98691.70;;;14.29;100.00
56992;BME280;42885;49.754;18.636;2023-05-13T01:47:48;98699.33;;;14.39;100.00
56992;BME280;42885;49.754;18.636;2023-05-13T01:50:19;98697.02;;;14.35;100.00
56992;BME280;42885;49.754;18.636;2023-05-13T01:52:50;98691.02;;;14.33;100.00
56992;BME280;42885;49.754;18.636;2023-05-13T01:55:22;98686.54;;;14.14;100.00
56992;BME280;42885;49.754;18.636;2023-05-13T01:57:53;98684.23;;;14.10;100.00
56992;BME280;42885;49.754;18.636;2023-05-13T02:00:24;98686.04;;;13.89;100.00
56992;BME280;42885;49.754;18.636;2023-05-13T02:02:55;98690.63;;;13.93;100.00
56992;BME280;42885;49.754;18.636;2023-05-13T02:05:26;98691.80;;;14.01;100.00
56992;BME280;42885;49.754;18.636;2023-05-13T02:07:57;98690.22;;;14.12;100.00
56992;BME280;42885;49.754;18.636;2023-05-13T02:10:28;98680.73;;;13.83;100.00
56992;BME280;42885;49.754;18.636;2023-05-13T02:13:00;98680.73;;;13.83;100.00
56992;BME280;42885;49.754;18.636;2023-05-13T02:15:33;98684.35;;;14.40;100.00
56992;BME280;42885;49.754;18.636;2023-05-13T02:18:04;98693.44;;;13.63;100.00
56992;BME280;42885;49.754;18.636;2023-05-13T02:20:35;98693.31;;;13.65;100.00
56992;BME280;42885;49.754;18.636;2023-05-13T02:23:06;98692.56;;;13.83;100.00
56992;BME280;42885;49.754;18.636;2023-05-13T02:25:37;98696.89;;;13.97;100.00
56992;BME280;42885;49.754;18.636;2023-05-13T02:28:08;98692.39;;;14.12;100.00
56992;BME280;42885;49.754;18.636;2023-05-13T02:30:39;98688.45;;;14.12;100.00
56992;BME280;42885;49.754;18.636;2023-05-13T02:33:10;98693.94;;;14.15;100.00
56992;BME280;42885;49.754;18.636;2023-05-13T02:35:42;98692.84;;;14.25;100.00
56992;BME280;42885;49.754;18.636;2023-05-13T02:38:13;98688.58;;;14.29;100.00
56992;BME280;42885;49.754;18.636;2023-05-13T02:40:44;98696.65;;;14.34;100.00
56992;BME280;42885;49.754;18.636;2023-05-13T02:43:15;98699.75;;;14.20;100.00
56992;BME280;42885;49.754;18.636;2023-05-13T02:45:50;98698.75;;;14.28;100.00
56992;BME280;42885;49.754;18.636;2023-05-13T02:48:21;98698.52;;;14.31;100.00
56992;BME280;42885;49.754;18.636;2023-05-13T02:50:52;98703.47;;;14.23;100.00
56992;BME280;42885;49.754;18.636;2023-05-13T02:53:23;98701.74;;;14.16;100.00
56992;BME280;42885;49.754;18.636;2023-05-13T02:55:56;98700.59;;;14.34;100.00
56992;BME280;42885;49.754;18.636;2023-05-13T02:58:28;98707.76;;;14.44;100.00
56992;BME280;42885;49.754;18.636;2023-05-13T03:01:00;98709.53;;;13.92;100.00
56992;BME280;42885;49.754;18.636;2023-05-13T03:03:32;98707.34;;;13.79;100.00
56992;BME280;42885;49.754;18.636;2023-05-13T03:06:03;98705.37;;;14.08;100.00
56992;BME280;42885;49.754;18.636;2023-05-13T03:08:34;98708.05;;;14.14;100.00
56992;BME280;42885;49.754;18.636;2023-05-13T03:11:05;98705.73;;;14.22;100.00
56992;BME280;42885;49.754;18.636;2023-05-13T03:13:36;98706.73;;;14.14;100.00
56992;BME280;42885;49.754;18.636;2023-05-13T03:16:07;98708.59;;;14.06;100.00
56992;BME280;42885;49.754;18.636;2023-05-13T03:18:38;98705.37;;;14.08;100.00
56992;BME280;42885;49.754;18.636;2023-05-13T03:21:09;98705.33;;;14.02;100.00
56992;BME280;42885;49.754;18.636;2023-05-13T03:23:41;98708.73;;;13.97;100.00
56992;BME280;42885;49.754;18.636;2023-05-13T03:26:12;98707.03;;;13.83;100.00
56992;BME280;42885;49.754;18.636;2023-05-13T03:28:43;98707.63;;;13.94;100.00
56992;BME280;42885;49.754;18.636;2023-05-13T03:31:15;98711.58;;;13.94;100.00
56992;BME280;42885;49.754;18.636;2023-05-13T03:33:46;98714.31;;;14.06;100.00
56992;BME280;42885;49.754;18.636;2023-05-13T03:36:17;98700.92;;;14.03;100.00
56992;BME280;42885;49.754;18.636;2023-05-13T03:38:48;98706.59;;;13.97;100.00
56992;BME280;42885;49.754;18.636;2023-05-13T03:41:19;98707.59;;;14.01;100.00
56992;BME280;42885;49.754;18.636;2023-05-13T03:43:50;98716.44;;;14.13;100.00
56992;BME280;42885;49.754;18.636;2023-05-13T03:46:21;98714.17;;;14.40;100.00
56992;BME280;42885;49.754;18.636;2023-05-13T03:48:53;98715.64;;;14.18;100.00
56992;BME280;42885;49.754;18.636;2023-05-13T03:51:24;98718.48;;;14.28;100.00
56992;BME280;42885;49.754;18.636;2023-05-13T03:53:55;98719.06;;;14.52;100.00
56992;BME280;42885;49.754;18.636;2023-05-13T03:56:27;98722.69;;;14.57;100.00
56992;BME280;42885;49.754;18.636;2023-05-13T03:58:58;98728.01;;;14.50;100.00
56992;BME280;42885;49.754;18.636;2023-05-13T04:01:29;98728.70;;;14.33;100.00
56992;BME280;42885;49.754;18.636;2023-05-13T04:04:01;98730.44;;;14.27;100.00
56992;BME280;42885;49.754;18.636;2023-05-13T04:06:33;98729.83;;;14.36;100.00
56992;BME280;42885;49.754;18.636;2023-05-13T04:09:05;98739.87;;;14.37;100.00
56992;BME280;42885;49.754;18.636;2023-05-13T04:11:37;98737.18;;;14.44;100.00
56992;BME280;42885;49.754;18.636;2023-05-13T04:14:08;98738.47;;;14.70;100.00
56992;BME280;42885;49.754;18.636;2023-05-13T04:16:39;98740.95;;;14.92;100.00
56992;BME280;42885;49.754;18.636;2023-05-13T04:19:10;98742.56;;;15.00;100.00
56992;BME280;42885;49.754;18.636;2023-05-13T04:21:42;98741.55;;;15.08;100.00
56992;BME280;42885;49.754;18.636;2023-05-13T04:24:13;98743.63;;;14.97;100.00
56992;BME280;42885;49.754;18.636;2023-05-13T04:26:44;98746.16;;;14.99;100.00
56992;BME280;42885;49.754;18.636;2023-05-13T04:29:15;98743.78;;;14.89;100.00
56992;BME280;42885;49.754;18.636;2023-05-13T04:31:46;98742.66;;;14.80;100.00
56992;BME280;42885;49.754;18.636;2023-05-13T04:34:18;98748.73;;;14.93;100.00
56992;BME280;42885;49.754;18.636;2023-05-13T04:36:51;98743.75;;;15.02;100.00
56992;BME280;42885;49.754;18.636;2023-05-13T04:39:22;98743.35;;;15.13;100.00
56992;BME280;42885;49.754;18.636;2023-05-13T04:41:53;98748.53;;;15.39;100.00
56992;BME280;42885;49.754;18.636;2023-05-13T04:44:24;98747.84;;;15.67;100.00
56992;BME280;42885;49.754;18.636;2023-05-13T04:46:55;98747.19;;;15.52;100.00
56992;BME280;42885;49.754;18.636;2023-05-13T04:49:26;98748.91;;;15.65;100.00
56992;BME280;42885;49.754;18.636;2023-05-13T04:51:57;98748.91;;;15.65;100.00
56992;BME280;42885;49.754;18.636;2023-05-13T04:54:28;98750.59;;;15.72;100.00
56992;BME280;42885;49.754;18.636;2023-05-13T04:56:59;98754.00;;;15.79;100.00
56992;BME280;42885;49.754;18.636;2023-05-13T04:59:32;98757.82;;;16.00;100.00
56992;BME280;42885;49.754;18.636;2023-05-13T05:02:04;98755.80;;;16.09;100.00
56992;BME280;42885;49.754;18.636;2023-05-13T05:04:35;98756.53;;;16.22;99.70
56992;BME280;42885;49.754;18.636;2023-05-13T05:07:07;98756.77;;;16.08;94.77
56992;BME280;42885;49.754;18.636;2023-05-13T05:09:39;98752.47;;;16.24;95.41
56992;BME280;42885;49.754;18.636;2023-05-13T05:12:10;98766.06;;;16.54;94.93
56992;BME280;42885;49.754;18.636;2023-05-13T05:14:42;98760.42;;;16.64;93.25
56992;BME280;42885;49.754;18.636;2023-05-13T05:17:14;98760.92;;;16.92;89.81
56992;BME280;42885;49.754;18.636;2023-05-13T05:19:45;98767.05;;;16.81;86.25
56992;BME280;42885;49.754;18.636;2023-05-13T05:22:16;98771.59;;;16.62;83.05
56992;BME280;42885;49.754;18.636;2023-05-13T05:24:47;98764.02;;;16.97;80.84
56992;BME280;42885;49.754;18.636;2023-05-13T05:27:18;98771.36;;;16.88;81.50
56992;BME280;42885;49.754;18.636;2023-05-13T05:29:49;98770.05;;;16.99;80.07
56992;BME280;42885;49.754;18.636;2023-05-13T05:32:20;98770.41;;;17.00;75.71
56992;BME280;42885;49.754;18.636;2023-05-13T05:34:52;98772.69;;;16.99;77.95
56992;BME280;42885;49.754;18.636;2023-05-13T05:37:22;98771.92;;;17.43;77.59
56992;BME280;42885;49.754;18.636;2023-05-13T05:39:54;98770.12;;;17.43;76.92
56992;BME280;42885;49.754;18.636;2023-05-13T05:42:25;98771.55;;;17.47;77.95
56992;BME280;42885;49.754;18.636;2023-05-13T05:44:56;98771.12;;;17.69;79.18
56992;BME280;42885;49.754;18.636;2023-05-13T05:47:27;98769.16;;;17.77;78.50
56992;BME280;42885;49.754;18.636;2023-05-13T05:49:58;98771.09;;;17.75;78.69
56992;BME280;42885;49.754;18.636;2023-05-13T05:52:29;98772.91;;;17.69;77.80
56992;BME280;42885;49.754;18.636;2023-05-13T05:55:00;98771.94;;;18.08;75.02
56992;BME280;42885;49.754;18.636;2023-05-13T05:57:32;98771.31;;;18.10;74.78
56992;BME280;42885;49.754;18.636;2023-05-13T06:00:04;98776.25;;;18.30;71.80
56992;BME280;42885;49.754;18.636;2023-05-13T06:02:37;98774.27;;;18.38;73.10
56992;BME280;42885;49.754;18.636;2023-05-13T06:05:09;98775.95;;;18.24;68.70
56992;BME280;42885;49.754;18.636;2023-05-13T06:07:41;98771.28;;;18.53;64.32
56992;BME280;42885;49.754;18.636;2023-05-13T06:10:11;98771.30;;;18.68;62.94
56992;BME280;42885;49.754;18.636;2023-05-13T06:12:43;98775.84;;;18.72;64.23
56992;BME280;42885;49.754;18.636;2023-05-13T06:15:14;98781.08;;;18.68;62.20
56992;BME280;42885;49.754;18.636;2023-05-13T06:17:46;98781.06;;;18.52;58.67
56992;BME280;42885;49.754;18.636;2023-05-13T06:20:19;98777.97;;;18.78;57.06
56992;BME280;42885;49.754;18.636;2023-05-13T06:22:50;98777.09;;;18.68;54.84
56992;BME280;42885;49.754;18.636;2023-05-13T06:25:21;98779.47;;;18.71;54.25
56992;BME280;42885;49.754;18.636;2023-05-13T06:27:52;98777.09;;;18.68;51.56
56992;BME280;42885;49.754;18.636;2023-05-13T06:30:24;98781.27;;;18.86;52.24
56992;BME280;42885;49.754;18.636;2023-05-13T06:32:55;98779.52;;;18.81;52.92
56992;BME280;42885;49.754;18.636;2023-05-13T06:35:26;98775.34;;;18.88;51.51
56992;BME280;42885;49.754;18.636;2023-05-13T06:37:58;98777.39;;;18.90;52.28
56992;BME280;42885;49.754;18.636;2023-05-13T06:40:29;98774.39;;;18.89;51.71
56992;BME280;42885;49.754;18.636;2023-05-13T06:43:00;98770.06;;;19.29;50.19
56992;BME280;42885;49.754;18.636;2023-05-13T06:45:33;98775.33;;;19.09;49.85
56992;BME280;42885;49.754;18.636;2023-05-13T06:48:04;98770.47;;;19.24;49.94
56992;BME280;42885;49.754;18.636;2023-05-13T06:50:36;98771.52;;;19.28;50.74
56992;BME280;42885;49.754;18.636;2023-05-13T06:53:08;98766.45;;;19.40;50.00
56992;BME280;42885;49.754;18.636;2023-05-13T06:55:42;98771.34;;;19.54;50.48
56992;BME280;42885;49.754;18.636;2023-05-13T06:58:13;98771.59;;;19.77;48.67
56992;BME280;42885;49.754;18.636;2023-05-13T07:00:44;98769.16;;;19.99;49.88
56992;BME280;42885;49.754;18.636;2023-05-13T07:03:16;98772.28;;;19.89;48.74
56992;BME280;42885;49.754;18.636;2023-05-13T07:05:48;98770.27;;;20.06;48.72
56992;BME280;42885;49.754;18.636;2023-05-13T07:08:19;98769.92;;;20.05;47.95
56992;BME280;42885;49.754;18.636;2023-05-13T07:10:50;98769.53;;;19.75;47.53
56992;BME280;42885;49.754;18.636;2023-05-13T07:13:21;98764.48;;;20.31;47.21
56992;BME280;42885;49.754;18.636;2023-05-13T07:15:52;98764.22;;;20.34;46.12
56992;BME280;42885;49.754;18.636;2023-05-13T07:18:23;98760.63;;;20.77;47.91
56992;BME280;42885;49.754;18.636;2023-05-13T07:20:54;98764.38;;;20.46;44.85
56992;BME280;42885;49.754;18.636;2023-05-13T07:23:28;98763.86;;;20.71;46.07
56992;BME280;42885;49.754;18.636;2023-05-13T07:26:00;98761.58;;;20.72;44.58
56992;BME280;42885;49.754;18.636;2023-05-13T07:28:31;98758.72;;;20.45;42.88
56992;BME280;42885;49.754;18.636;2023-05-13T07:31:04;98764.92;;;20.74;43.70
56992;BME280;42885;49.754;18.636;2023-05-13T07:33:35;98750.16;;;21.17;43.30
56992;BME280;42885;49.754;18.636;2023-05-13T07:36:06;98760.28;;;20.86;42.60
56992;BME280;42885;49.754;18.636;2023-05-13T07:38:37;98752.73;;;20.33;41.37
56992;BME280;42885;49.754;18.636;2023-05-13T07:41:08;98761.68;;;20.80;41.08
56992;BME280;42885;49.754;18.636;2023-05-13T07:43:39;98765.59;;;20.62;40.65
56992;BME280;42885;49.754;18.636;2023-05-13T07:46:10;98765.22;;;21.09;41.71
56992;BME280;42885;49.754;18.636;2023-05-13T07:48:41;98761.73;;;21.12;42.20
56992;BME280;42885;49.754;18.636;2023-05-13T07:51:13;98760.96;;;21.30;41.13
56992;BME280;42885;49.754;18.636;2023-05-13T07:53:45;98758.84;;;21.34;40.75
56992;BME280;42885;49.754;18.636;2023-05-13T07:56:16;98753.63;;;21.46;40.38
56992;BME280;42885;49.754;18.636;2023-05-13T07:58:47;98748.19;;;21.20;39.01
56992;BME280;42885;49.754;18.636;2023-05-13T08:01:19;98758.27;;;20.98;40.51
56992;BME280;42885;49.754;18.636;2023-05-13T08:03:50;98756.55;;;21.71;41.09
56992;BME280;42885;49.754;18.636;2023-05-13T08:06:21;98752.89;;;21.72;40.43
56992;BME280;42885;49.754;18.636;2023-05-13T08:08:53;98752.08;;;21.11;41.00
56992;BME280;42885;49.754;18.636;2023-05-13T08:11:24;98748.28;;;21.96;41.23
56992;BME280;42885;49.754;18.636;2023-05-13T08:13:55;98749.03;;;21.20;42.52
56992;BME280;42885;49.754;18.636;2023-05-13T08:16:26;98749.33;;;21.67;43.03
56992;BME280;42885;49.754;18.636;2023-05-13T08:18:57;98747.83;;;22.05;43.01
56992;BME280;42885;49.754;18.636;2023-05-13T08:21:29;98743.36;;;21.83;42.25
56992;BME280;42885;49.754;18.636;2023-05-13T08:24:00;98748.28;;;21.96;42.47
56992;BME280;42885;49.754;18.636;2023-05-13T08:26:33;98744.78;;;21.78;42.05
56992;BME280;42885;49.754;18.636;2023-05-13T08:29:04;98748.95;;;21.98;42.79
56992;BME280;42885;49.754;18.636;2023-05-13T08:31:35;98744.61;;;22.20;42.45
56992;BME280;42885;49.754;18.636;2023-05-13T08:34:06;98745.15;;;22.27;41.36
56992;BME280;42885;49.754;18.636;2023-05-13T08:36:37;98744.66;;;21.65;42.04
56992;BME280;42885;49.754;18.636;2023-05-13T08:39:08;98743.14;;;22.25;44.19
56992;BME280;42885;49.754;18.636;2023-05-13T08:41:41;98741.50;;;22.51;44.13
56992;BME280;42885;49.754;18.636;2023-05-13T08:44:14;98747.23;;;22.38;41.73
56992;BME280;42885;49.754;18.636;2023-05-13T08:46:50;98730.53;;;23.01;42.22
56992;BME280;42885;49.754;18.636;2023-05-13T08:49:21;98737.23;;;23.05;41.60
56992;BME280;42885;49.754;18.636;2023-05-13T08:51:53;98735.69;;;22.99;39.94
56992;BME280;42885;49.754;18.636;2023-05-13T08:54:24;98725.80;;;22.82;40.05
56992;BME280;42885;49.754;18.636;2023-05-13T08:56:56;98723.77;;;23.28;39.96
56992;BME280;42885;49.754;18.636;2023-05-13T08:59:28;98722.70;;;22.61;39.87
56992;BME280;42885;49.754;18.636;2023-05-13T09:01:59;98720.65;;;22.85;41.32
56992;BME280;42885;49.754;18.636;2023-05-13T09:04:33;98714.82;;;23.62;41.23
56992;BME280;42885;49.754;18.636;2023-05-13T09:07:07;98724.86;;;23.00;41.67
56992;BME280;42885;49.754;18.636;2023-05-13T09:09:38;98711.97;;;24.17;41.64
56992;BME280;42885;49.754;18.636;2023-05-13T09:12:10;98717.73;;;24.58;40.14
56992;BME280;42885;49.754;18.636;2023-05-13T09:14:41;98708.97;;;24.21;40.46
56992;BME280;42885;49.754;18.636;2023-05-13T09:17:12;98709.20;;;23.09;42.05
56992;BME280;42885;49.754;18.636;2023-05-13T09:19:43;98713.67;;;22.92;43.43
56992;BME280;42885;49.754;18.636;2023-05-13T09:22:17;98709.86;;;23.12;42.49
56992;BME280;42885;49.754;18.636;2023-05-13T09:24:54;98718.43;;;22.72;41.74
56992;BME280;42885;49.754;18.636;2023-05-13T09:27:36;98713.76;;;22.13;42.77
56992;BME280;42885;49.754;18.636;2023-05-13T09:30:08;98716.20;;;22.37;42.80
56992;BME280;42885;49.754;18.636;2023-05-13T09:32:40;98713.28;;;22.48;42.32
56992;BME280;42885;49.754;18.636;2023-05-13T09:35:15;98706.16;;;21.78;43.25
56992;BME280;42885;49.754;18.636;2023-05-13T09:37:47;98712.72;;;21.83;42.81
56992;BME280;42885;49.754;18.636;2023-05-13T09:40:18;98717.14;;;22.23;42.64
56992;BME280;42885;49.754;18.636;2023-05-13T09:42:49;98710.95;;;22.49;41.30
56992;BME280;42885;49.754;18.636;2023-05-13T09:45:22;98715.27;;;21.93;42.12
56992;BME280;42885;49.754;18.636;2023-05-13T09:47:54;98721.58;;;21.88;43.97
56992;BME280;42885;49.754;18.636;2023-05-13T09:50:26;98727.34;;;21.47;44.20
56992;BME280;42885;49.754;18.636;2023-05-13T09:52:57;98723.34;;;21.47;44.87
56992;BME280;42885;49.754;18.636;2023-05-13T09:55:30;98720.72;;;21.33;45.08
56992;BME280;42885;49.754;18.636;2023-05-13T09:58:02;98718.23;;;21.17;45.59
56992;BME280;42885;49.754;18.636;2023-05-13T10:00:33;98722.25;;;21.36;45.37
56992;BME280;42885;49.754;18.636;2023-05-13T10:03:05;98716.45;;;21.72;46.41
56992;BME280;42885;49.754;18.636;2023-05-13T10:05:38;98714.05;;;21.83;45.94
56992;BME280;42885;49.754;18.636;2023-05-13T10:08:11;98717.26;;;21.91;45.30
56992;BME280;42885;49.754;18.636;2023-05-13T10:10:44;98720.81;;;21.59;44.75
56992;BME280;42885;49.754;18.636;2023-05-13T10:13:19;98725.16;;;21.65;46.35
56992;BME280;42885;49.754;18.636;2023-05-13T10:15:53;98728.41;;;21.54;45.00
56992;BME280;42885;49.754;18.636;2023-05-13T10:18:24;98726.10;;;21.23;45.79
56992;BME280;42885;49.754;18.636;2023-05-13T10:20:55;98733.02;;;21.30;45.53
56992;BME280;42885;49.754;18.636;2023-05-13T10:23:26;98726.44;;;21.24;46.28
56992;BME280;42885;49.754;18.636;2023-05-13T10:25:58;98732.70;;;21.33;47.31
56992;BME280;42885;49.754;18.636;2023-05-13T10:28:30;98732.61;;;21.25;47.11
56992;BME280;42885;49.754;18.636;2023-05-13T10:31:01;98727.56;;;21.03;46.62
56992;BME280;42885;49.754;18.636;2023-05-13T10:33:33;98731.42;;;21.05;47.25
56992;BME280;42885;49.754;18.636;2023-05-13T10:36:09;98734.06;;;20.91;46.99
56992;BME280;42885;49.754;18.636;2023-05-13T10:38:53;98730.97;;;21.10;48.45
56992;BME280;42885;49.754;18.636;2023-05-13T10:41:54;98736.37;;;21.04;48.57
56992;BME280;42885;49.754;18.636;2023-05-13T10:44:18;98742.34;;;21.02;48.57
56992;BME280;42885;49.754;18.636;2023-05-13T10:46:49;98732.12;;;21.11;49.00
56992;BME280;42885;49.754;18.636;2023-05-13T10:49:21;98735.23;;;21.07;49.99
56992;BME280;42885;49.754;18.636;2023-05-13T10:51:57;98739.09;;;21.08;50.97
56992;BME280;42885;49.754;18.636;2023-05-13T10:54:34;98737.57;;;20.92;50.56
56992;BME280;42885;49.754;18.636;2023-05-13T10:57:02;98738.22;;;20.89;49.44
56992;BME280;42885;49.754;18.636;2023-05-13T10:59:34;98738.80;;;20.83;49.77
56992;BME280;42885;49.754;18.636;2023-05-13T11:02:21;98742.59;;;20.71;50.62
56992;BME280;42885;49.754;18.636;2023-05-13T11:05:00;98738.76;;;20.55;49.95
56992;BME280;42885;49.754;18.636;2023-05-13T11:07:31;98737.64;;;20.72;50.05
56992;BME280;42885;49.754;18.636;2023-05-13T11:10:09;98745.55;;;20.68;50.58
56992;BME280;42885;49.754;18.636;2023-05-13T11:12:35;98742.23;;;20.56;49.70
56992;BME280;42885;49.754;18.636;2023-05-13T11:15:20;98741.42;;;21.39;49.11
56992;BME280;42885;49.754;18.636;2023-05-13T11:17:40;98740.15;;;20.49;49.46
56992;BME280;42885;49.754;18.636;2023-05-13T11:20:12;98746.41;;;20.68;49.61
56992;BME280;42885;49.754;18.636;2023-05-13T11:22:45;98744.32;;;20.62;49.77
56992;BME280;42885;49.754;18.636;2023-05-13T11:25:16;98745.11;;;20.72;49.31
56992;BME280;42885;49.754;18.636;2023-05-13T11:27:47;98744.67;;;20.77;50.42
56992;BME280;42885;49.754;18.636;2023-05-13T11:30:24;98743.98;;;20.75;48.99
56992;BME280;42885;49.754;18.636;2023-05-13T11:32:56;98740.00;;;21.67;48.83
56992;BME280;42885;49.754;18.636;2023-05-13T11:35:30;98742.99;;;20.86;49.78
56992;BME280;42885;49.754;18.636;2023-05-13T11:38:02;98739.16;;;21.81;48.28
56992;BME280;42885;49.754;18.636;2023-05-13T11:40:35;98750.22;;;20.70;50.26
56992;BME280;42885;49.754;18.636;2023-05-13T11:43:09;98747.32;;;20.63;50.78
56992;BME280;42885;49.754;18.636;2023-05-13T11:45:41;98749.41;;;20.69;50.61
56992;BME280;42885;49.754;18.636;2023-05-13T11:48:21;98747.77;;;20.58;50.77
56992;BME280;42885;49.754;18.636;2023-05-13T11:50:55;98749.98;;;20.77;50.10
56992;BME280;42885;49.754;18.636;2023-05-13T11:53:27;98752.70;;;20.67;47.10
56992;BME280;42885;49.754;18.636;2023-05-13T11:56:07;98748.30;;;20.48;46.46
56992;BME280;42885;49.754;18.636;2023-05-13T11:58:32;98747.83;;;20.39;46.67
56992;BME280;42885;49.754;18.636;2023-05-13T12:01:11;98752.89;;;20.46;46.43
56992;BME280;42885;49.754;18.636;2023-05-13T12:03:38;98749.77;;;20.60;46.16
56992;BME280;42885;49.754;18.636;2023-05-13T12:06:09;98755.61;;;20.74;46.10
56992;BME280;42885;49.754;18.636;2023-05-13T12:08:45;98752.98;;;20.78;45.49
56992;BME280;42885;49.754;18.636;2023-05-13T12:11:16;98749.78;;;20.74;45.21
56992;BME280;42885;49.754;18.636;2023-05-13T12:13:47;98756.70;;;20.81;45.04
56992;BME280;42885;49.754;18.636;2023-05-13T12:16:18;98746.17;;;21.17;45.01
56992;BME280;42885;49.754;18.636;2023-05-13T12:19:09;98752.70;;;21.05;43.80
56992;BME280;42885;49.754;18.636;2023-05-13T12:21:36;98749.88;;;20.93;43.63
56992;BME280;42885;49.754;18.636;2023-05-13T12:24:18;98733.55;;;21.20;42.39
56992;BME280;42885;49.754;18.636;2023-05-13T12:26:50;98733.55;;;21.20;42.39
56992;BME280;42885;49.754;18.636;2023-05-13T12:29:22;98743.82;;;21.14;43.04
56992;BME280;42885;49.754;18.636;2023-05-13T12:32:04;98744.87;;;21.54;42.86
56992;BME280;42885;49.754;18.636;2023-05-13T12:34:36;98742.03;;;21.51;42.79
56992;BME280;42885;49.754;18.636;2023-05-13T12:37:11;98744.50;;;21.49;42.47
56992;BME280;42885;49.754;18.636;2023-05-13T12:39:43;98745.77;;;21.58;40.29
56992;BME280;42885;49.754;18.636;2023-05-13T12:42:16;98749.34;;;21.35;40.88
56992;BME280;42885;49.754;18.636;2023-05-13T12:44:47;98750.82;;;21.48;40.79
56992;BME280;42885;49.754;18.636;2023-05-13T12:47:19;98749.14;;;21.14;41.09
56992;BME280;42885;49.754;18.636;2023-05-13T12:49:52;98749.23;;;21.55;40.29
56992;BME280;42885;49.754;18.636;2023-05-13T12:52:24;98751.91;;;21.59;39.20
56992;BME280;42885;49.754;18.636;2023-05-13T12:54:55;98753.75;;;21.12;39.33
56992;BME280;42885;49.754;18.636;2023-05-13T12:57:26;98754.64;;;21.31;39.60
56992;BME280;42885;49.754;18.636;2023-05-13T12:59:57;98751.55;;;21.68;39.77
56992;BME280;42885;49.754;18.636;2023-05-13T13:02:28;98751.31;;;21.65;39.59
56992;BME280;42885;49.754;18.636;2023-05-13T13:05:00;98752.03;;;21.53;38.68
56992;BME280;42885;49.754;18.636;2023-05-13T13:07:31;98748.61;;;21.29;38.66
56992;BME280;42885;49.754;18.636;2023-05-13T13:10:04;98748.47;;;21.30;39.21
56992;BME280;42885;49.754;18.636;2023-05-13T13:12:36;98747.30;;;21.47;40.62
56992;BME280;42885;49.754;18.636;2023-05-13T13:15:09;98742.16;;;22.04;40.27